Search for airport 
image banner adimage banner adimage banner ad
image banner ad

9CL3 - Likely

Located in Likely, United States

ICAO - 9CL3, IATA -

Data provided by Airmate  

General information

Coordinates: N41°14'25" W120°31'34"
Elevation is 4420 feet MSL.
Magnetic variation is 17° East
View others Airports in California

Operational data

Special qualification required
Current time UTC:
Current local time:
Weather at : KAAT - Alturas Muni ( 27 km )
METAR: KAAT 240755Z AUTO 07006KT 10SM FEW055 FEW080 FEW090 19/05 A3010 RMK AO2 SLP139 T01940050 403170072
View NOTAMs / SUP AIP / TFR affecting this airport [VIEW]
Communications frequencies: [VIEW]

Runways:

RWY identifierQFULength (ft)Width (ft)SurfaceLDA (ft)
06196050GRAVEL
24196050GRAVEL

Airport contact information

Address: Likely United States

Satellite view of 9CL3